Time;durP1;ratioP1;P1;durP2;ratioP2;P2;SDS_P1;SDS_P2;PMS_P1;PMS_P2;Temp;Humidity;BMP_temperature;BMP_pressure;BME280_temperature;BME280_humidity;BME280_pressure;Samples;Min_cycle;Max_cycle;Signal;HPM_P1;HPM_P2
2024/04/04 00:00:06;;;;;;;8.70;1.83;;;;;;;12.17;100.00;100678.03;5276527;28;20015;-74
2024/04/04 00:02:36;;;;;;;8.57;1.40;;;;;;;12.10;100.00;100677.09;5279045;28;20047;-73
2024/04/04 00:05:07;;;;;;;6.57;1.75;;;;;;;12.08;100.00;100664.84;5276668;28;20485;-73
2024/04/04 00:07:38;;;;;;;9.95;1.52;;;;;;;12.00;100.00;100671.13;5276218;28;20481;-73
2024/04/04 00:10:08;;;;;;;7.53;1.50;;;;;;;11.97;100.00;100670.66;5276482;28;20051;-73
2024/04/04 00:12:42;;;;;;;6.32;2.22;;;;;;;11.90;100.00;100666.00;5277997;28;20523;-74
2024/04/04 00:15:12;;;;;;;12.48;2.30;;;;;;;11.91;100.00;100658.78;5280756;28;20019;-73
2024/04/04 00:17:45;;;;;;;6.47;1.77;;;;;;;11.96;100.00;100660.91;5275805;28;20593;-74
2024/04/04 00:20:16;;;;;;;6.38;1.50;;;;;;;12.03;100.00;100656.47;5278876;28;20102;-74
2024/04/04 00:22:46;;;;;;;9.05;2.05;;;;;;;12.05;100.00;100649.94;5274936;28;20761;-74
2024/04/04 00:25:17;;;;;;;8.85;1.40;;;;;;;12.12;100.00;100650.03;5277895;28;20032;-74
2024/04/04 00:27:47;;;;;;;10.63;2.05;;;;;;;12.15;100.00;100647.81;5278958;28;20020;-74
2024/04/04 00:30:18;;;;;;;14.45;2.22;;;;;;;12.10;100.00;100635.94;5273737;28;20015;-74
2024/04/04 00:32:48;;;;;;;4.22;1.58;;;;;;;12.19;100.00;100634.81;5277405;28;20021;-73
2024/04/04 00:35:19;;;;;;;6.13;1.40;;;;;;;12.17;100.00;100632.31;5276969;28;20022;-74
2024/04/04 00:37:50;;;;;;;6.95;1.63;;;;;;;12.18;100.00;100623.22;5275506;28;20020;-74
2024/04/04 00:40:20;;;;;;;8.35;1.30;;;;;;;12.24;100.00;100615.44;5282001;28;20030;-74
2024/04/04 00:42:51;;;;;;;5.47;1.40;;;;;;;12.24;100.00;100610.06;5277147;28;20019;-74
2024/04/04 00:45:21;;;;;;;4.35;1.30;;;;;;;12.36;100.00;100604.09;5279656;28;20033;-74
2024/04/04 00:47:52;;;;;;;2.30;0.98;;;;;;;12.49;100.00;100597.22;5272701;28;20077;-74
2024/04/04 00:50:23;;;;;;;3.78;2.15;;;;;;;12.45;100.00;100594.06;5275833;28;20035;-74
2024/04/04 00:52:55;;;;;;;6.25;1.08;;;;;;;12.56;100.00;100592.78;5281251;28;20054;-74
2024/04/04 00:55:25;;;;;;;8.00;1.27;;;;;;;12.51;100.00;100593.34;5273654;28;20046;-74
2024/04/04 00:57:56;;;;;;;6.65;1.27;;;;;;;12.47;100.00;100575.88;5274967;28;20023;-74
2024/04/04 01:00:29;;;;;;;8.35;1.40;;;;;;;12.51;100.00;100584.44;5278164;28;20019;-74
2024/04/04 01:03:00;;;;;;;5.30;1.35;;;;;;;12.55;100.00;100580.31;5280279;28;20047;-74
2024/04/04 01:05:30;;;;;;;4.72;1.05;;;;;;;12.56;100.00;100582.00;5279508;28;20484;-76
2024/04/04 01:08:14;;;;;;;4.30;1.17;;;;;;;12.62;100.00;100574.03;5269674;28;20032;-76
2024/04/04 01:10:45;;;;;;;5.53;1.40;;;;;;;12.67;100.00;100568.09;5278128;28;20029;-75
2024/04/04 01:13:15;;;;;;;6.35;1.50;;;;;;;12.64;100.00;100563.91;5278383;28;20007;-75
2024/04/04 01:15:46;;;;;;;4.97;1.15;;;;;;;12.68;100.00;100567.06;5276331;28;20019;-74
2024/04/04 01:18:19;;;;;;;8.77;1.55;;;;;;;12.77;100.00;100557.03;5278019;28;20012;-74
2024/04/04 01:20:54;;;;;;;7.95;1.33;;;;;;;12.77;100.00;100563.25;5274738;28;20032;-74
2024/04/04 01:23:25;;;;;;;8.60;1.30;;;;;;;12.69;100.00;100558.78;5276889;28;20028;-75
2024/04/04 01:26:06;;;;;;;5.22;1.60;;;;;;;12.70;100.00;100554.22;5277074;28;20397;-75
2024/04/04 01:28:38;;;;;;;11.02;1.95;;;;;;;12.81;100.00;100548.41;5272662;28;20069;-75
2024/04/04 01:31:09;;;;;;;7.35;1.80;;;;;;;12.80;100.00;100548.56;5276306;28;20016;-76
2024/04/04 01:33:40;;;;;;;6.15;1.38;;;;;;;12.78;100.00;100540.69;5275809;28;20028;-75
2024/04/04 01:36:20;;;;;;;10.68;1.73;;;;;;;12.85;100.00;100535.38;5274052;28;20024;-75
2024/04/04 01:38:51;;;;;;;6.47;1.40;;;;;;;12.81;100.00;100531.41;5275071;28;20077;-76
2024/04/04 01:41:22;;;;;;;4.38;1.50;;;;;;;12.80;100.00;100527.91;5280458;27;20031;-75
2024/04/04 01:43:52;;;;;;;6.60;1.40;;;;;;;12.89;100.00;100525.91;5273858;28;20043;-76
2024/04/04 01:46:22;;;;;;;5.93;1.35;;;;;;;12.79;100.00;100525.38;5276443;28;20438;-75
2024/04/04 01:48:53;;;;;;;5.43;1.33;;;;;;;12.85;100.00;100524.59;5278920;28;20388;-76
2024/04/04 01:51:23;;;;;;;5.40;1.20;;;;;;;12.83;100.00;100526.66;5276963;28;20632;-75
2024/04/04 01:53:54;;;;;;;7.00;1.77;;;;;;;12.88;100.00;100510.78;5279851;28;20027;-75
2024/04/04 01:56:25;;;;;;;3.38;1.23;;;;;;;12.78;100.00;100516.47;5278498;28;20102;-75
2024/04/04 01:58:56;;;;;;;5.40;1.33;;;;;;;12.77;100.00;100506.72;5273022;28;20437;-75
2024/04/04 02:01:27;;;;;;;4.88;1.20;;;;;;;12.77;100.00;100509.41;5284437;28;20024;-75
2024/04/04 02:03:57;;;;;;;6.00;1.88;;;;;;;12.75;100.00;100508.78;5279291;28;20388;-75
2024/04/04 02:06:28;;;;;;;8.07;1.45;;;;;;;12.82;100.00;100495.38;5277237;28;20043;-75
2024/04/04 02:08:59;;;;;;;8.45;1.70;;;;;;;12.87;100.00;100501.03;5270421;28;20027;-75
2024/04/04 02:11:30;;;;;;;11.02;1.40;;;;;;;12.88;100.00;100487.38;5279632;28;20081;-76
2024/04/04 02:14:00;;;;;;;4.65;1.67;;;;;;;12.87;100.00;100490.28;5285241;28;20023;-75
2024/04/04 02:16:31;;;;;;;9.43;1.35;;;;;;;12.87;100.00;100474.94;5274283;28;20610;-75
2024/04/04 02:19:02;;;;;;;9.23;1.95;;;;;;;12.93;100.00;100476.03;5284901;28;20020;-75
2024/04/04 02:21:33;;;;;;;6.82;1.77;;;;;;;12.99;100.00;100474.44;5273703;28;20044;-75
2024/04/04 02:24:04;;;;;;;9.90;1.88;;;;;;;12.91;100.00;100465.47;5282945;28;20015;-75
2024/04/04 02:26:34;;;;;;;6.80;1.90;;;;;;;12.97;100.00;100458.50;5272787;28;20016;-75
2024/04/04 02:29:06;;;;;;;4.18;1.52;;;;;;;13.01;100.00;100450.88;5274565;28;20012;-75
2024/04/04 02:31:36;;;;;;;7.70;2.38;;;;;;;12.98;100.00;100449.38;5279935;28;20469;-76
2024/04/04 02:34:07;;;;;;;11.65;2.30;;;;;;;13.08;100.00;100452.59;5278275;28;20045;-75
2024/04/04 02:36:37;;;;;;;6.32;2.03;;;;;;;13.09;100.00;100446.16;5277984;28;20020;-75
2024/04/04 02:39:13;;;;;;;7.22;2.30;;;;;;;13.07;100.00;100442.84;5280441;28;20019;-75
2024/04/04 02:41:44;;;;;;;13.93;3.03;;;;;;;13.24;100.00;100435.38;5281856;28;20084;-75
2024/04/04 02:44:15;;;;;;;8.52;2.20;;;;;;;13.30;100.00;100436.44;5278512;28;20012;-75
2024/04/04 02:46:46;;;;;;;8.40;1.92;;;;;;;13.25;100.00;100430.81;5277940;27;20300;-75
2024/04/04 02:49:17;;;;;;;6.28;1.60;;;;;;;13.28;100.00;100425.03;5277146;28;20061;-75
2024/04/04 02:51:48;;;;;;;8.68;2.10;;;;;;;13.33;100.00;100411.81;5279534;28;20020;-75
2024/04/04 02:54:18;;;;;;;9.85;2.08;;;;;;;13.32;100.00;100413.69;5282759;28;20012;-76
2024/04/04 02:56:49;;;;;;;8.18;2.33;;;;;;;13.37;100.00;100405.03;5276306;28;20397;-75
2024/04/04 02:59:20;;;;;;;10.05;2.33;;;;;;;13.39;100.00;100401.09;5275882;28;20047;-75
2024/04/04 03:01:50;;;;;;;10.68;2.47;;;;;;;13.44;100.00;100395.94;5276617;28;20539;-75
2024/04/04 03:04:22;;;;;;;10.55;2.03;;;;;;;13.46;100.00;100395.78;5279425;28;20027;-75
2024/04/04 03:06:52;;;;;;;9.05;2.65;;;;;;;13.53;100.00;100393.13;5277206;28;20131;-75
2024/04/04 03:09:23;;;;;;;11.05;2.40;;;;;;;13.57;100.00;100397.09;5277079;28;20099;-74
2024/04/04 03:11:53;;;;;;;14.02;3.60;;;;;;;13.68;100.00;100391.97;5278160;28;20429;-75
2024/04/04 03:14:24;;;;;;;11.43;2.22;;;;;;;13.65;100.00;100381.56;5283916;28;20084;-74
2024/04/04 03:16:54;;;;;;;11.88;2.63;;;;;;;13.72;100.00;100385.16;5274277;28;20019;-76
2024/04/04 03:19:25;;;;;;;11.95;2.65;;;;;;;13.69;100.00;100388.25;5268980;28;20024;-75
2024/04/04 03:21:55;;;;;;;14.63;2.55;;;;;;;13.82;100.00;100383.97;5276250;28;20485;-75
2024/04/04 03:24:26;;;;;;;18.30;3.47;;;;;;;13.78;100.00;100374.63;5278255;28;20031;-75
2024/04/04 03:26:56;;;;;;;17.83;2.55;;;;;;;13.86;100.00;100364.50;5282577;28;20022;-75
2024/04/04 03:29:27;;;;;;;16.77;2.67;;;;;;;13.89;100.00;100366.78;5269917;28;20424;-75
2024/04/04 03:31:57;;;;;;;15.85;2.80;;;;;;;13.89;100.00;100363.25;5283051;28;20024;-75
2024/04/04 03:34:28;;;;;;;28.65;3.67;;;;;;;13.81;100.00;100356.19;5272282;28;20024;-75
2024/04/04 03:36:58;;;;;;;13.43;3.08;;;;;;;14.04;100.00;100353.16;5279849;28;20031;-76
2024/04/04 03:39:29;;;;;;;23.13;3.13;;;;;;;13.96;100.00;100353.34;5279995;28;20545;-75
2024/04/04 03:41:59;;;;;;;18.42;3.10;;;;;;;14.01;100.00;100348.19;5278394;28;20050;-75
2024/04/04 03:44:30;;;;;;;25.70;3.35;;;;;;;14.04;100.00;100353.16;5278082;28;20022;-75
2024/04/04 03:47:00;;;;;;;15.88;3.38;;;;;;;13.98;100.00;100360.19;5275490;28;20031;-75
2024/04/04 03:49:31;;;;;;;16.05;3.10;;;;;;;14.03;100.00;100356.91;5276937;28;20027;-74
2024/04/04 03:52:01;;;;;;;16.80;3.22;;;;;;;14.07;100.00;100355.47;5273537;28;20469;-75
2024/04/04 03:54:32;;;;;;;21.42;3.30;;;;;;;13.98;100.00;100352.09;5275981;28;20049;-73
2024/04/04 03:57:03;;;;;;;20.55;3.33;;;;;;;14.08;100.00;100343.66;5271079;28;20020;-74
2024/04/04 03:59:34;;;;;;;13.13;3.10;;;;;;;14.03;100.00;100345.28;5276974;28;20024;-75
2024/04/04 04:02:05;;;;;;;24.08;3.47;;;;;;;14.08;100.00;100340.13;5280310;28;20016;-75
2024/04/04 04:04:35;;;;;;;23.40;4.10;;;;;;;14.18;100.00;100337.88;5275971;28;20473;-74
2024/04/04 04:07:06;;;;;;;22.08;3.28;;;;;;;14.18;100.00;100343.28;5278502;28;20102;-74
2024/04/04 04:09:36;;;;;;;17.42;3.25;;;;;;;14.12;100.00;100339.53;5266856;28;20028;-74
2024/04/04 04:12:07;;;;;;;16.67;3.40;;;;;;;14.19;100.00;100340.38;5266308;28;20020;-73
2024/04/04 04:14:37;;;;;;;17.20;3.83;;;;;;;14.16;100.00;100332.69;5275710;28;20023;-73
2024/04/04 04:17:08;;;;;;;18.05;3.10;;;;;;;14.12;100.00;100328.72;5262081;28;20022;-74
2024/04/04 04:19:38;;;;;;;16.17;3.38;;;;;;;14.07;100.00;100333.91;5274210;28;20024;-74
2024/04/04 04:22:09;;;;;;;14.93;3.50;;;;;;;14.09;100.00;100329.13;5263754;28;20474;-73
2024/04/04 04:24:40;;;;;;;17.05;3.65;;;;;;;14.10;100.00;100322.69;5262680;28;20030;-73
2024/04/04 04:27:10;;;;;;;18.77;3.35;;;;;;;14.11;100.00;100324.38;5262364;28;20374;-73
2024/04/04 04:29:41;;;;;;;18.67;3.58;;;;;;;14.08;100.00;100318.53;5265097;28;20099;-74
2024/04/04 04:32:12;;;;;;;18.95;2.80;;;;;;;14.10;100.00;100325.38;5264161;28;20023;-73
2024/04/04 04:34:42;;;;;;;15.65;2.80;;;;;;;14.15;100.00;100320.22;5251617;28;20416;-74
2024/04/04 04:37:13;;;;;;;22.52;3.83;;;;;;;14.21;100.00;100315.91;5258810;28;20024;-73
2024/04/04 04:39:43;;;;;;;15.70;2.70;;;;;;;14.06;100.00;100321.44;5271673;28;20023;-72
2024/04/04 04:42:14;;;;;;;18.40;2.80;;;;;;;14.07;100.00;100306.94;5261337;28;20501;-74
2024/04/04 04:44:44;;;;;;;22.15;3.78;;;;;;;14.07;100.00;100314.19;5268296;28;20027;-74
2024/04/04 04:47:15;;;;;;;15.00;3.83;;;;;;;14.05;100.00;100300.88;5272922;28;20015;-72
2024/04/04 04:49:45;;;;;;;16.15;3.38;;;;;;;14.08;100.00;100307.75;5267384;28;20077;-72
2024/04/04 04:52:17;;;;;;;13.25;2.85;;;;;;;14.16;100.00;100302.19;5267835;28;20016;-72
2024/04/04 04:54:47;;;;;;;15.73;2.75;;;;;;;14.04;100.00;100295.72;5274195;28;20030;-73
2024/04/04 04:57:18;;;;;;;10.13;2.88;;;;;;;14.07;100.00;100298.84;5263377;28;20020;-73
2024/04/04 04:59:48;;;;;;;13.23;3.40;;;;;;;14.11;100.00;100297.41;5265978;28;20024;-74
2024/04/04 05:02:19;;;;;;;13.20;2.08;;;;;;;14.09;100.00;100293.22;5263265;28;20036;-74
2024/04/04 05:04:49;;;;;;;8.82;2.58;;;;;;;14.09;100.00;100295.94;5272696;28;20032;-74
2024/04/04 05:07:20;;;;;;;12.07;2.80;;;;;;;14.09;100.00;100302.16;5263126;28;20034;-74
2024/04/04 05:09:50;;;;;;;16.90;2.60;;;;;;;14.13;100.00;100286.41;5265727;28;20024;-74
2024/04/04 05:12:21;;;;;;;9.50;2.08;;;;;;;14.15;100.00;100295.94;5269774;28;20548;-73
2024/04/04 05:14:51;;;;;;;16.58;2.88;;;;;;;14.23;100.00;100292.25;5263720;28;20028;-74
2024/04/04 05:17:22;;;;;;;13.43;2.38;;;;;;;14.11;100.00;100294.72;5259354;28;20027;-72
2024/04/04 05:19:52;;;;;;;13.48;2.85;;;;;;;14.16;100.00;100286.00;5270725;28;20565;-72
2024/04/04 05:22:23;;;;;;;14.70;2.20;;;;;;;14.04;100.00;100288.44;5262514;28;20031;-74
2024/04/04 05:24:54;;;;;;;11.70;2.63;;;;;;;14.09;100.00;100291.38;5272074;28;20032;-73
2024/04/04 05:27:24;;;;;;;14.63;2.63;;;;;;;14.15;100.00;100293.25;5275363;28;20046;-72
2024/04/04 05:29:55;;;;;;;13.88;2.85;;;;;;;14.21;100.00;100289.75;5273115;28;20016;-72
2024/04/04 05:32:25;;;;;;;10.05;2.25;;;;;;;14.24;100.00;100291.19;5277794;28;20097;-72
2024/04/04 05:34:56;;;;;;;14.25;2.28;;;;;;;14.17;100.00;100284.97;5275895;28;20065;-72
2024/04/04 05:37:26;;;;;;;11.93;2.40;;;;;;;14.15;100.00;100282.44;5276438;28;20492;-72
2024/04/04 05:39:57;;;;;;;9.00;2.78;;;;;;;14.14;100.00;100294.28;5277734;28;20027;-72
2024/04/04 05:42:28;;;;;;;11.07;2.13;;;;;;;14.15;100.00;100284.31;5276553;28;20020;-72
2024/04/04 05:44:59;;;;;;;6.70;1.92;;;;;;;14.18;100.00;100302.81;5278078;28;20032;-73
2024/04/04 05:47:30;;;;;;;9.23;2.13;;;;;;;14.23;100.00;100297.63;5279549;28;20028;-73
2024/04/04 05:50:00;;;;;;;8.95;2.63;;;;;;;14.20;100.00;100306.13;5268298;28;20035;-73
2024/04/04 05:52:31;;;;;;;8.55;2.20;;;;;;;14.27;100.00;100311.56;5274932;28;20073;-73
2024/04/04 05:55:01;;;;;;;7.13;2.30;;;;;;;14.30;100.00;100311.13;5268226;28;20039;-72
2024/04/04 05:57:33;;;;;;;10.35;2.40;;;;;;;14.32;100.00;100309.09;5267704;28;20054;-72
2024/04/04 06:00:04;;;;;;;10.38;2.15;;;;;;;14.21;100.00;100308.63;5276198;28;20016;-73
2024/04/04 06:02:34;;;;;;;8.18;2.70;;;;;;;14.23;100.00;100317.34;5278532;28;20027;-72
2024/04/04 06:05:05;;;;;;;11.07;2.22;;;;;;;14.15;100.00;100314.81;5271528;28;20089;-73
2024/04/04 06:07:36;;;;;;;8.13;2.20;;;;;;;14.27;100.00;100314.25;5273102;28;20085;-72
2024/04/04 06:10:06;;;;;;;8.18;2.40;;;;;;;14.17;100.00;100304.69;5274555;28;20026;-72
2024/04/04 06:12:37;;;;;;;18.13;3.20;;;;;;;14.23;100.00;100320.03;5267598;28;20024;-72
2024/04/04 06:15:07;;;;;;;10.30;2.38;;;;;;;14.25;100.00;100322.53;5275608;28;20016;-72
2024/04/04 06:17:38;;;;;;;10.55;2.65;;;;;;;14.24;100.00;100305.53;5273258;28;20438;-72
2024/04/04 06:20:09;;;;;;;8.10;2.88;;;;;;;14.21;100.00;100311.34;5271939;28;20027;-72
2024/04/04 06:22:39;;;;;;;10.88;3.00;;;;;;;14.21;100.00;100303.25;5270655;28;20028;-72
2024/04/04 06:25:10;;;;;;;7.32;2.05;;;;;;;14.18;100.00;100278.53;5269487;28;20047;-73
2024/04/04 06:27:41;;;;;;;8.25;1.98;;;;;;;14.19;100.00;100286.41;5269929;28;20032;-73
2024/04/04 06:30:11;;;;;;;13.65;2.58;;;;;;;14.17;100.00;100293.88;5268028;28;20020;-72
2024/04/04 06:32:42;;;;;;;10.15;2.35;;;;;;;14.21;100.00;100294.31;5267574;28;20020;-72
2024/04/04 06:35:12;;;;;;;12.98;2.67;;;;;;;14.08;100.00;100300.50;5284399;28;20023;-72
2024/04/04 06:37:47;;;;;;;6.63;1.90;;;;;;;14.06;100.00;100304.44;5268657;28;20062;-72
2024/04/04 06:40:17;;;;;;;5.65;2.50;;;;;;;14.20;100.00;100301.56;5270015;28;20056;-72
2024/04/04 06:42:48;;;;;;;8.70;2.22;;;;;;;14.25;100.00;100290.97;5280069;28;20888;-72
2024/04/04 06:45:19;;;;;;;7.82;2.28;;;;;;;14.20;100.00;100282.66;5269246;28;20024;-72
2024/04/04 06:47:57;;;;;;;8.20;1.45;;;;;;;14.16;100.00;100276.03;5274786;28;20024;-72
2024/04/04 06:50:28;;;;;;;9.38;1.85;;;;;;;14.15;100.00;100276.22;5274384;28;20086;-72
2024/04/04 06:52:58;;;;;;;9.30;1.67;;;;;;;14.15;100.00;100279.75;5269500;28;20042;-72
2024/04/04 06:55:30;;;;;;;3.85;1.50;;;;;;;14.16;100.00;100269.81;5279899;28;20023;-72
2024/04/04 06:58:01;;;;;;;9.05;1.45;;;;;;;14.17;100.00;100271.47;5268790;28;20027;-72
2024/04/04 07:00:32;;;;;;;8.63;1.92;;;;;;;14.15;100.00;100290.53;5274313;28;20066;-72
2024/04/04 07:03:03;;;;;;;9.55;1.92;;;;;;;14.18;100.00;100286.63;5277497;28;20628;-73
2024/04/04 07:05:34;;;;;;;5.30;1.13;;;;;;;14.21;100.00;100289.75;5267181;28;20062;-72
2024/04/04 07:08:08;;;;;;;7.88;1.52;;;;;;;14.29;100.00;100296.81;5272378;28;20024;-72
2024/04/04 07:10:39;;;;;;;4.80;1.50;;;;;;;14.27;100.00;100300.78;5275435;28;20035;-72
2024/04/04 07:13:09;;;;;;;7.70;1.83;;;;;;;14.33;100.00;100299.94;5277679;28;20090;-72
2024/04/04 07:15:40;;;;;;;4.63;1.33;;;;;;;14.33;100.00;100310.75;5272015;28;20038;-72
2024/04/04 07:18:10;;;;;;;6.32;1.08;;;;;;;14.21;100.00;100315.91;5265635;28;20088;-72
2024/04/04 07:20:41;;;;;;;5.90;1.42;;;;;;;14.27;100.00;100314.25;5267742;28;20019;-72
2024/04/04 07:23:11;;;;;;;6.82;1.13;;;;;;;14.27;100.00;100320.47;5278177;28;20027;-72
2024/04/04 07:25:49;;;;;;;6.50;3.55;;;;;;;14.35;100.00;100336.47;5274797;28;20440;-72
2024/04/04 07:28:21;;;;;;;8.35;2.35;;;;;;;14.39;100.00;100343.13;5262136;28;20373;-72
2024/04/04 07:30:51;;;;;;;3.78;1.35;;;;;;;14.35;100.00;100335.63;5266722;28;20024;-72
2024/04/04 07:33:22;;;;;;;3.80;1.33;;;;;;;14.38;100.00;100343.34;5270744;28;20027;-72
2024/04/04 07:35:52;;;;;;;8.18;1.60;;;;;;;14.31;100.00;100339.78;5272843;28;20065;-73
2024/04/04 07:38:23;;;;;;;2.45;1.30;;;;;;;14.42;100.00;100339.22;5272855;28;20027;-74
2024/04/04 07:40:53;;;;;;;5.95;1.27;;;;;;;14.52;100.00;100341.53;5272135;28;20636;-72
2024/04/04 07:43:23;;;;;;;6.57;2.10;;;;;;;14.52;100.00;100352.34;5267705;28;20028;-72
2024/04/04 07:45:55;;;;;;;3.70;1.20;;;;;;;14.51;100.00;100354.22;5264706;28;20604;-72
2024/04/04 07:48:26;;;;;;;5.32;1.13;;;;;;;14.41;100.00;100348.34;5265974;28;20576;-72
2024/04/04 07:50:56;;;;;;;8.13;2.08;;;;;;;14.57;100.00;100360.66;5275001;28;20064;-72
2024/04/04 07:53:28;;;;;;;7.80;3.35;;;;;;;14.38;100.00;100373.84;5272931;28;20034;-72
2024/04/04 07:55:58;;;;;;;9.60;1.25;;;;;;;14.42;100.00;100367.03;5268067;28;20019;-72
2024/04/04 07:58:29;;;;;;;2.85;0.80;;;;;;;14.52;100.00;100355.88;5270934;28;20028;-72
2024/04/04 08:00:59;;;;;;;5.30;1.00;;;;;;;14.50;100.00;100357.94;5268678;28;20022;-72
2024/04/04 08:03:31;;;;;;;3.33;0.90;;;;;;;14.55;100.00;100355.44;5280847;28;20027;-74
2024/04/04 08:06:03;;;;;;;4.72;1.10;;;;;;;14.36;100.00;100362.44;5268552;28;20022;-72
2024/04/04 08:08:33;;;;;;;6.50;1.20;;;;;;;14.37;100.00;100368.66;5266962;28;20036;-72
2024/04/04 08:11:05;;;;;;;2.40;0.50;;;;;;;14.19;100.00;100356.56;5268967;28;20020;-72
2024/04/04 08:13:35;;;;;;;2.40;1.25;;;;;;;14.42;100.00;100375.13;5266329;28;20019;-72
2024/04/04 08:16:07;;;;;;;3.42;0.70;;;;;;;14.48;100.00;100368.09;5267440;28;20028;-72
2024/04/04 08:18:37;;;;;;;5.60;2.75;;;;;;;14.45;100.00;100377.41;5267577;28;20392;-72
2024/04/04 08:21:08;;;;;;;2.17;1.05;;;;;;;14.40;100.00;100379.88;5275766;28;20020;-72
2024/04/04 08:23:39;;;;;;;2.15;0.80;;;;;;;14.27;100.00;100385.25;5280900;28;20109;-72
2024/04/04 08:26:09;;;;;;;4.75;0.50;;;;;;;14.32;100.00;100392.72;5268878;28;20032;-72
2024/04/04 08:28:40;;;;;;;3.17;0.60;;;;;;;14.41;100.00;100384.25;5270782;28;20394;-72
2024/04/04 08:31:10;;;;;;;3.40;0.60;;;;;;;14.34;100.00;100393.34;5267681;28;20024;-72
2024/04/04 08:33:41;;;;;;;3.35;0.77;;;;;;;14.53;100.00;100398.03;5268955;28;20031;-72
2024/04/04 08:36:12;;;;;;;3.40;0.70;;;;;;;14.56;100.00;100394.06;5266710;28;20553;-72
2024/04/04 08:38:42;;;;;;;6.00;0.98;;;;;;;14.64;100.00;100410.91;5273449;28;20035;-71
2024/04/04 08:41:13;;;;;;;4.30;0.90;;;;;;;14.59;100.00;100416.09;5274951;28;20439;-71
2024/04/04 08:43:46;;;;;;;3.95;0.98;;;;;;;14.73;100.00;100408.88;5277527;28;20031;-71
2024/04/04 08:46:17;;;;;;;2.97;0.77;;;;;;;14.66;100.00;100397.22;5265007;28;20023;-74
2024/04/04 08:48:54;;;;;;;2.85;0.63;;;;;;;14.66;100.00;100421.50;5268888;28;20028;-73
2024/04/04 08:51:25;;;;;;;4.45;1.48;;;;;;;14.74;100.00;100407.84;5266248;28;20067;-72
2024/04/04 08:53:56;;;;;;;16.92;10.15;;;;;;;14.91;100.00;100413.66;5270076;28;20138;-72
2024/04/04 08:56:27;;;;;;;7.05;1.17;;;;;;;15.09;100.00;100416.63;5281072;28;20106;-72
2024/04/04 08:58:57;;;;;;;3.28;0.90;;;;;;;15.19;100.00;100419.75;5277784;28;20020;-72
2024/04/04 09:01:28;;;;;;;5.85;1.85;;;;;;;15.71;100.00;100412.72;5266322;28;20070;-72
2024/04/04 09:03:59;;;;;;;3.15;1.00;;;;;;;16.13;100.00;100426.75;5278741;28;20024;-72
2024/04/04 09:06:30;;;;;;;3.05;0.90;;;;;;;16.49;100.00;100436.19;5279922;28;20444;-73
2024/04/04 09:09:01;;;;;;;53.75;43.88;;;;;;;16.23;100.00;100434.44;5271931;28;20059;-73
2024/04/04 09:11:31;;;;;;;7.53;1.20;;;;;;;15.94;100.00;100446.56;5277744;28;20531;-73
2024/04/04 09:14:05;;;;;;;4.07;1.25;;;;;;;15.86;100.00;100461.13;5280069;28;20045;-73
2024/04/04 09:16:36;;;;;;;2.22;0.82;;;;;;;15.58;100.00;100457.81;5271183;28;20024;-73
2024/04/04 09:19:22;;;;;;;7.70;1.00;;;;;;;15.60;100.00;100453.00;5283738;28;20140;-73
2024/04/04 09:21:52;;;;;;;1.50;0.68;;;;;;;15.77;100.00;100438.91;5272293;28;20027;-73
2024/04/04 09:24:23;;;;;;;4.85;0.75;;;;;;;16.09;100.00;100440.91;5271464;28;20397;-73
2024/04/04 09:26:54;;;;;;;3.13;0.73;;;;;;;16.26;100.00;100445.63;5278762;28;20045;-72
2024/04/04 09:29:26;;;;;;;3.97;1.20;;;;;;;16.38;100.00;100447.72;5272170;28;20019;-73
2024/04/04 09:31:58;;;;;;;5.63;2.50;;;;;;;16.52;100.00;100450.16;5284574;28;20038;-73
2024/04/04 09:34:29;;;;;;;4.47;1.08;;;;;;;16.48;100.00;100458.91;5277025;28;20431;-73
2024/04/04 09:36:59;;;;;;;1.77;0.60;;;;;;;16.08;100.00;100469.84;5281382;28;20476;-73
2024/04/04 09:39:30;;;;;;;4.30;0.90;;;;;;;16.08;100.00;100469.84;5285999;28;20026;-73
2024/04/04 09:42:03;;;;;;;1.88;0.95;;;;;;;16.08;100.00;100463.63;5279228;28;20067;-73
2024/04/04 09:44:34;;;;;;;2.38;1.02;;;;;;;15.61;100.00;100473.59;5284737;28;20036;-73
2024/04/04 09:47:05;;;;;;;3.03;1.10;;;;;;;15.71;100.00;100469.50;5283219;28;20023;-73
2024/04/04 09:49:35;;;;;;;5.05;1.02;;;;;;;15.72;100.00;100473.84;5278711;28;20093;-73
2024/04/04 09:52:07;;;;;;;2.55;1.27;;;;;;;15.75;100.00;100464.47;5284341;28;20346;-73
2024/04/04 09:54:38;;;;;;;6.07;0.98;;;;;;;15.98;100.00;100475.69;5281938;28;20062;-73
2024/04/04 09:57:09;;;;;;;5.07;0.75;;;;;;;16.16;100.00;100475.03;5276259;28;20020;-73
2024/04/04 09:59:40;;;;;;;3.60;0.90;;;;;;;16.54;100.00;100471.59;5276441;28;20032;-73
2024/04/04 10:02:10;;;;;;;5.38;1.20;;;;;;;16.51;100.00;100466.59;5282749;28;20028;-73
2024/04/04 10:04:41;;;;;;;8.57;1.73;;;;;;;16.52;100.00;100476.41;5277254;28;20393;-73
2024/04/04 10:07:13;;;;;;;5.75;0.82;;;;;;;16.38;100.00;100475.59;5281425;28;20024;-73
2024/04/04 10:09:43;;;;;;;1.88;0.88;;;;;;;16.63;100.00;100480.31;5278336;28;20032;-73
2024/04/04 10:12:14;;;;;;;5.30;1.23;;;;;;;16.66;100.00;100477.97;5275844;28;20522;-73
2024/04/04 10:14:51;;;;;;;4.30;1.42;;;;;;;16.46;100.00;100488.06;5276513;28;20032;-73
2024/04/04 10:17:21;;;;;;;3.55;1.13;;;;;;;16.56;100.00;100486.56;5274894;28;20477;-73
2024/04/04 10:19:52;;;;;;;3.97;1.70;;;;;;;16.89;100.00;100479.38;5278612;28;20027;-73
2024/04/04 10:22:24;;;;;;;4.07;1.10;;;;;;;16.77;100.00;100500.91;5278100;28;20680;-72
2024/04/04 10:25:03;;;;;;;7.45;0.95;;;;;;;17.17;100.00;100496.09;5278996;28;20176;-73
2024/04/04 10:27:33;;;;;;;5.05;0.90;;;;;;;17.72;100.00;100498.19;5266238;28;20040;-73
2024/04/04 10:30:05;;;;;;;7.35;1.45;;;;;;;18.05;100.00;100490.63;5275670;28;20506;-73
2024/04/04 10:32:35;;;;;;;10.23;3.83;;;;;;;17.83;100.00;100509.19;5273016;28;20020;-73
2024/04/04 10:35:06;;;;;;;5.90;1.60;;;;;;;17.35;100.00;100498.06;5277705;28;20030;-73
2024/04/04 10:37:36;;;;;;;7.35;1.17;;;;;;;17.26;100.00;100507.50;5279834;28;20042;-73
2024/04/04 10:40:07;;;;;;;7.15;1.42;;;;;;;16.71;100.00;100504.41;5279799;28;20020;-73
2024/04/04 10:42:37;;;;;;;8.50;2.17;;;;;;;16.89;100.00;100509.19;5276286;28;20034;-73
2024/04/04 10:45:08;;;;;;;8.23;1.45;;;;;;;16.89;100.00;100510.00;5278869;28;20016;-73
2024/04/04 10:47:38;;;;;;;6.95;1.50;;;;;;;16.88;100.00;100500.22;5274270;28;20019;-74
2024/04/04 10:50:09;;;;;;;9.00;1.60;;;;;;;16.90;100.00;100506.25;5279429;28;20489;-75
2024/04/04 10:52:39;;;;;;;6.50;1.65;;;;;;;16.63;100.00;100513.63;5279382;28;20035;-74
2024/04/04 10:55:10;;;;;;;11.10;1.65;;;;;;;16.65;100.00;100511.53;5276695;28;20027;-73
2024/04/04 10:57:41;;;;;;;7.20;1.58;;;;;;;16.68;100.00;100521.94;5276891;28;20436;-73
2024/04/04 11:00:13;;;;;;;6.75;1.40;;;;;;;16.70;100.00;100506.31;5279366;28;20046;-73
2024/04/04 11:02:44;;;;;;;7.68;1.35;;;;;;;16.70;100.00;100509.00;5271384;28;20263;-73
2024/04/04 11:05:17;;;;;;;6.18;1.85;;;;;;;16.65;100.00;100516.13;5271669;27;20051;-73
2024/04/04 11:07:47;;;;;;;21.73;8.15;;;;;;;16.52;100.00;100512.44;5275841;28;20444;-73
2024/04/04 11:10:18;;;;;;;19.02;10.60;;;;;;;16.54;100.00;100513.03;5277167;28;20026;-73
2024/04/04 11:12:48;;;;;;;6.47;2.00;;;;;;;16.65;100.00;100519.66;5281429;28;20020;-73
2024/04/04 11:15:20;;;;;;;13.00;2.33;;;;;;;16.71;100.00;100513.41;5277407;28;20030;-74
2024/04/04 11:17:52;;;;;;;11.88;3.55;;;;;;;17.22;100.00;100515.25;5274073;28;20069;-73
2024/04/04 11:20:23;;;;;;;7.13;1.77;;;;;;;17.50;100.00;100522.16;5276685;28;20028;-73
2024/04/04 11:22:55;;;;;;;9.07;2.28;;;;;;;17.52;100.00;100523.63;5270671;28;20064;-75
2024/04/04 11:25:25;;;;;;;13.63;2.58;;;;;;;17.69;100.00;100521.19;5284167;28;20031;-73
2024/04/04 11:27:56;;;;;;;7.07;1.83;;;;;;;17.75;100.00;100508.66;5273298;28;20038;-74
2024/04/04 11:30:26;;;;;;;13.75;2.78;;;;;;;17.78;100.00;100511.75;5281375;28;20023;-74